Time;durP1;ratioP1;P1;durP2;ratioP2;P2;SDS_P1;SDS_P2;PMS_P1;PMS_P2;Temp;Humidity;BMP_temperature;BMP_pressure;BME280_temperature;BME280_humidity;BME280_pressure;Samples;Min_cycle;Max_cycle;Signal;HPM_P1;HPM_P2
2023/01/27 00:00:54;;;;;;;9.88;2.92;;;;;;;3.59;93.78;102388.53;5013130;28;20109;-83
2023/01/27 00:03:20;;;;;;;9.73;2.50;;;;;;;3.59;94.12;102380.81;5011802;28;20102;-83
2023/01/27 00:05:46;;;;;;;9.77;2.50;;;;;;;3.62;94.11;102378.38;5013134;28;20022;-83
2023/01/27 00:08:12;;;;;;;12.80;2.70;;;;;;;3.55;94.29;102382.41;5012961;28;20022;-83
2023/01/27 00:10:38;;;;;;;8.82;2.58;;;;;;;3.55;94.43;102379.84;5012424;28;20026;-83
2023/01/27 00:15:47;;;;;;;6.93;2.40;;;;;;;3.52;94.98;102382.28;5012449;28;20123;-83
2023/01/27 00:18:13;;;;;;;8.02;2.20;;;;;;;3.52;94.97;102389.97;5012732;28;20089;-83
2023/01/27 00:26:15;;;;;;;13.88;2.83;;;;;;;3.46;95.50;102384.63;5013395;28;20104;-83
2023/01/27 00:28:42;;;;;;;9.60;2.40;;;;;;;3.46;95.89;102384.63;5012596;28;20022;-83
2023/01/27 00:33:55;;;;;;;11.15;2.40;;;;;;;3.44;95.70;102383.69;5012916;28;20111;-83
2023/01/27 00:36:21;;;;;;;7.85;2.20;;;;;;;3.45;95.55;102392.25;5012830;28;20390;-82
2023/01/27 00:38:46;;;;;;;8.82;2.40;;;;;;;3.39;95.72;102396.34;5011332;28;20109;-83
2023/01/27 00:41:18;;;;;;;12.15;2.85;;;;;;;3.35;95.75;102388.47;5013135;28;20550;-82
2023/01/27 00:43:44;;;;;;;9.93;3.10;;;;;;;3.34;95.78;102389.28;5012171;28;20087;-82
2023/01/27 00:46:09;;;;;;;8.03;2.50;;;;;;;3.33;96.25;102392.66;5012774;28;20022;-82
2023/01/27 00:48:34;;;;;;;7.40;2.60;;;;;;;3.31;95.87;102395.16;5012382;28;20283;-83
2023/01/27 00:51:00;;;;;;;10.63;2.97;;;;;;;3.29;96.43;102395.91;5011715;28;20216;-82
2023/01/27 00:53:25;;;;;;;13.32;3.17;;;;;;;3.26;96.52;102391.53;5012635;28;20075;-82
2023/01/27 00:55:51;;;;;;;9.43;2.83;;;;;;;3.24;96.34;102391.47;5012315;28;20120;-82
2023/01/27 00:58:17;;;;;;;8.75;2.65;;;;;;;3.24;96.39;102396.63;5011932;28;20030;-83
2023/01/27 01:00:42;;;;;;;7.88;2.70;;;;;;;3.22;96.37;102394.78;5012338;28;20033;-83
2023/01/27 01:03:07;;;;;;;11.98;2.90;;;;;;;3.19;96.90;102405.81;5011957;28;20486;-83
2023/01/27 01:05:32;;;;;;;10.35;3.13;;;;;;;3.20;96.82;102406.69;5011523;28;20518;-83
2023/01/27 01:07:58;;;;;;;6.53;2.67;;;;;;;3.18;96.81;102404.03;5011832;28;20156;-83
2023/01/27 01:10:23;;;;;;;8.27;2.78;;;;;;;3.16;96.83;102404.81;5012404;28;20030;-83
2023/01/27 01:12:48;;;;;;;9.68;2.80;;;;;;;3.16;97.24;102409.94;5015362;28;20038;-82
2023/01/27 01:15:14;;;;;;;10.20;2.95;;;;;;;3.12;97.00;102401.25;5016012;28;20455;-83
2023/01/27 01:17:39;;;;;;;12.45;3.42;;;;;;;3.08;97.43;102405.38;5001191;28;20042;-83
2023/01/27 01:20:05;;;;;;;10.52;3.00;;;;;;;3.16;96.76;102402.25;4995630;28;20463;-82
2023/01/27 01:22:30;;;;;;;12.00;3.50;;;;;;;3.06;97.67;102403.53;4996676;28;20018;-83
2023/01/27 01:24:55;;;;;;;17.88;4.18;;;;;;;3.09;97.18;102412.28;4996164;28;20486;-82
2023/01/27 01:27:21;;;;;;;12.60;3.60;;;;;;;3.04;97.51;102416.31;4995626;28;20125;-83
2023/01/27 01:29:47;;;;;;;9.88;3.40;;;;;;;3.04;97.61;102423.16;4995800;28;20030;-82
2023/01/27 01:32:12;;;;;;;8.07;2.97;;;;;;;3.03;97.84;102424.81;4996089;28;20026;-83
2023/01/27 01:34:37;;;;;;;14.45;4.05;;;;;;;3.01;97.76;102425.59;4995518;28;20081;-83
2023/01/27 01:37:03;;;;;;;10.32;3.70;;;;;;;3.00;96.96;102419.56;4994728;28;20479;-82
2023/01/27 01:39:30;;;;;;;9.63;3.67;;;;;;;2.99;97.34;102422.94;4995845;28;20027;-82
2023/01/27 01:41:55;;;;;;;9.23;3.67;;;;;;;2.98;95.94;102438.28;4995089;28;20069;-82
2023/01/27 01:44:24;;;;;;;13.40;4.43;;;;;;;2.91;95.02;102425.22;4995914;28;20034;-83
2023/01/27 01:46:49;;;;;;;10.68;4.35;;;;;;;2.91;95.48;102427.78;4995545;28;20026;-82
2023/01/27 01:49:17;;;;;;;11.93;4.03;;;;;;;2.93;95.75;102428.69;4995382;28;20077;-82
2023/01/27 01:51:48;;;;;;;10.40;3.95;;;;;;;2.90;95.73;102428.56;4995821;28;20033;-83
2023/01/27 01:54:18;;;;;;;12.30;4.88;;;;;;;2.89;96.14;102426.81;4995285;28;20030;-82
2023/01/27 01:56:48;;;;;;;10.82;4.15;;;;;;;2.89;96.20;102426.81;4995866;28;20027;-83
2023/01/27 01:59:32;;;;;;;9.68;3.90;;;;;;;2.91;96.24;102430.34;4996099;28;20034;-82
2023/01/27 02:02:02;;;;;;;12.48;4.00;;;;;;;2.88;96.39;102419.03;4994704;28;20058;-83
2023/01/27 02:04:33;;;;;;;10.50;3.88;;;;;;;2.88;95.64;102431.88;4995551;28;20057;-82
2023/01/27 02:07:08;;;;;;;12.18;4.18;;;;;;;2.86;95.67;102428.38;4994292;28;20047;-82
2023/01/27 02:09:35;;;;;;;13.55;4.28;;;;;;;2.86;95.69;102424.13;4994981;28;20113;-83
2023/01/27 02:12:01;;;;;;;15.07;4.38;;;;;;;2.85;95.45;102418.94;4995211;28;20030;-82
2023/01/27 02:14:26;;;;;;;8.15;3.60;;;;;;;2.85;95.83;102421.50;4995488;28;20022;-83
2023/01/27 02:16:52;;;;;;;8.88;4.13;;;;;;;2.85;96.21;102419.81;4994628;28;20051;-83
2023/01/27 02:19:45;;;;;;;8.88;3.40;;;;;;;2.85;95.99;102430.06;4995166;28;20023;-83
2023/01/27 02:22:23;;;;;;;11.25;4.03;;;;;;;2.85;96.30;102430.06;4994699;28;20030;-82
2023/01/27 02:24:54;;;;;;;11.98;4.57;;;;;;;2.78;95.98;102433.19;4995401;28;20022;-83
2023/01/27 02:27:19;;;;;;;10.40;4.15;;;;;;;2.81;96.30;102425.63;4995389;28;20049;-83
2023/01/27 02:29:45;;;;;;;9.27;3.92;;;;;;;2.82;96.15;102427.34;4994347;28;20379;-84
2023/01/27 02:32:24;;;;;;;10.82;4.03;;;;;;;2.84;96.34;102445.38;4994279;28;20031;-83
2023/01/27 02:34:51;;;;;;;9.85;3.83;;;;;;;2.85;96.16;102437.75;4994189;28;20042;-82
2023/01/27 02:37:17;;;;;;;8.75;4.05;;;;;;;2.83;96.17;102436.81;4994419;28;20033;-83
2023/01/27 02:39:47;;;;;;;9.77;4.13;;;;;;;2.80;96.42;102436.69;4995270;28;20026;-83
2023/01/27 02:42:15;;;;;;;11.18;4.28;;;;;;;2.78;96.72;102444.31;4994809;28;20080;-84
2023/01/27 02:44:40;;;;;;;12.20;4.47;;;;;;;2.76;96.62;102442.50;4994302;28;20447;-83
2023/01/27 02:47:06;;;;;;;12.35;4.93;;;;;;;2.73;96.76;102439.78;4994103;28;20057;-83
2023/01/27 02:49:31;;;;;;;15.45;5.03;;;;;;;2.73;96.82;102434.66;4994601;28;20018;-83
2023/01/27 02:51:56;;;;;;;13.82;5.07;;;;;;;2.70;96.78;102450.81;4993529;28;20031;-83
2023/01/27 02:54:24;;;;;;;10.85;4.75;;;;;;;2.70;96.66;102445.66;4994899;28;20120;-83
2023/01/27 02:56:50;;;;;;;12.30;4.60;;;;;;;2.71;97.08;102441.41;4993817;28;20022;-83
2023/01/27 02:59:16;;;;;;;14.35;5.35;;;;;;;2.70;97.21;102435.41;4993661;28;20030;-84
2023/01/27 03:01:41;;;;;;;12.23;4.55;;;;;;;2.69;97.11;102443.06;4994423;28;20459;-83
2023/01/27 03:04:08;;;;;;;12.32;5.35;;;;;;;2.70;97.12;102435.41;4994248;28;20060;-83
2023/01/27 03:06:33;;;;;;;15.10;5.53;;;;;;;2.63;97.11;102441.97;4994180;28;20035;-83
2023/01/27 03:08:58;;;;;;;15.07;5.90;;;;;;;2.60;97.24;102448.66;4994233;28;20374;-82
2023/01/27 03:14:08;;;;;;;14.95;5.55;;;;;;;2.60;97.56;102444.38;4994495;28;20069;-83
2023/01/27 03:19:17;;;;;;;13.00;5.38;;;;;;;2.58;97.33;102453.72;4993818;28;20562;-82
2023/01/27 03:21:44;;;;;;;15.65;6.07;;;;;;;2.54;97.43;102458.63;4994437;28;20057;-82
2023/01/27 03:24:09;;;;;;;19.10;7.50;;;;;;;2.52;96.53;102453.44;4993943;28;20467;-82
2023/01/27 03:26:37;;;;;;;19.90;7.50;;;;;;;2.53;95.84;102446.66;4992896;28;20053;-82
2023/01/27 03:31:46;;;;;;;20.67;6.80;;;;;;;2.58;96.37;102455.41;4993328;28;20502;-82
2023/01/27 03:34:12;;;;;;;16.42;6.45;;;;;;;2.59;96.85;102458.00;4992798;28;20018;-83
2023/01/27 03:47:32;;;;;;;18.45;6.50;;;;;;;2.57;98.62;102466.44;4993407;28;20045;-82
2023/01/27 03:49:57;;;;;;;15.93;6.57;;;;;;;2.56;98.77;102468.16;4993504;28;20030;-83
2023/01/27 03:52:23;;;;;;;18.10;7.13;;;;;;;2.55;98.77;102468.97;4993602;28;20038;-83
2023/01/27 03:54:48;;;;;;;18.80;7.00;;;;;;;2.56;98.80;102465.59;4991931;28;20498;-82
2023/01/27 03:57:13;;;;;;;17.27;7.15;;;;;;;2.54;99.25;102471.44;4993310;28;20030;-82
2023/01/27 03:59:39;;;;;;;18.20;6.90;;;;;;;2.58;99.21;102475.91;4993161;28;20169;-82
2023/01/27 04:07:35;;;;;;;19.98;7.80;;;;;;;2.54;100.00;102481.69;4993932;28;20081;-83
2023/01/27 04:10:02;;;;;;;18.42;7.25;;;;;;;2.50;100.00;102475.56;4992564;28;20027;-83
2023/01/27 04:12:27;;;;;;;16.70;7.82;;;;;;;2.57;100.00;102479.25;4993416;28;20026;-83
2023/01/27 04:14:53;;;;;;;17.15;6.85;;;;;;;2.54;100.00;102477.47;4992430;28;20049;-83
2023/01/27 04:17:18;;;;;;;19.60;7.60;;;;;;;2.51;100.00;102474.75;5005049;28;20046;-83
2023/01/27 04:19:44;;;;;;;19.15;7.65;;;;;;;2.51;100.00;102471.31;5012958;28;20160;-83
2023/01/27 04:22:11;;;;;;;17.53;7.50;;;;;;;2.53;100.00;102467.16;5012498;28;20033;-83
2023/01/27 04:24:36;;;;;;;19.45;7.50;;;;;;;2.53;100.00;102478.25;5012624;28;20467;-83
2023/01/27 04:27:07;;;;;;;24.88;9.40;;;;;;;2.46;100.00;102466.00;5012878;28;20029;-83
2023/01/27 04:29:39;;;;;;;24.13;9.38;;;;;;;2.49;100.00;102470.38;5011698;28;20037;-83
2023/01/27 04:32:06;;;;;;;22.85;9.57;;;;;;;2.45;100.00;102477.91;5012579;28;20041;-83
2023/01/27 04:34:32;;;;;;;22.23;9.10;;;;;;;2.49;100.00;102473.78;5012704;28;20033;-82
2023/01/27 04:36:58;;;;;;;22.98;10.00;;;;;;;2.47;100.00;102478.00;5011807;28;20026;-83
2023/01/27 04:39:24;;;;;;;26.52;11.23;;;;;;;2.44;100.00;102481.28;5012771;28;20041;-83
2023/01/27 04:41:50;;;;;;;26.20;10.90;;;;;;;2.44;100.00;102482.97;5012154;28;20032;-82
2023/01/27 04:44:15;;;;;;;23.52;10.52;;;;;;;2.46;100.00;102486.50;5012065;28;20347;-82
2023/01/27 04:46:41;;;;;;;23.58;10.23;;;;;;;2.45;100.00;102477.06;5015147;28;20029;-83
2023/01/27 04:49:06;;;;;;;26.40;11.25;;;;;;;2.45;100.00;102485.59;5016492;28;20474;-83
2023/01/27 04:51:32;;;;;;;24.02;10.45;;;;;;;2.47;100.00;102488.25;5015622;28;20030;-83
2023/01/27 04:53:58;;;;;;;23.27;10.02;;;;;;;2.45;99.59;102487.31;5016141;28;20394;-82
2023/01/27 04:56:33;;;;;;;24.65;10.18;;;;;;;2.46;99.94;102489.91;5016576;28;20018;-83
2023/01/27 04:59:00;;;;;;;22.55;10.02;;;;;;;2.47;99.13;102488.25;5014726;28;20026;-83
2023/01/27 05:01:26;;;;;;;24.23;10.52;;;;;;;2.44;98.73;102509.47;5015995;28;20076;-83
2023/01/27 05:03:51;;;;;;;22.13;10.30;;;;;;;2.46;99.05;102496.75;5016058;28;20030;-82
2023/01/27 05:06:17;;;;;;;22.98;9.40;;;;;;;2.47;99.50;102488.25;5015961;28;20474;-82
2023/01/27 05:08:42;;;;;;;23.27;10.38;;;;;;;2.44;99.11;102493.25;5016101;28;20033;-83
2023/01/27 05:11:11;;;;;;;21.33;9.68;;;;;;;2.46;99.33;102501.88;5014471;28;20109;-82
2023/01/27 05:13:37;;;;;;;22.50;9.48;;;;;;;2.46;99.25;102504.44;5015987;28;20076;-83
2023/01/27 05:16:13;;;;;;;22.13;10.27;;;;;;;2.46;98.90;102507.00;5015999;28;20045;-83
2023/01/27 05:18:40;;;;;;;22.42;10.30;;;;;;;2.47;98.84;102501.06;5017793;28;20129;-83
2023/01/27 05:21:20;;;;;;;22.48;10.10;;;;;;;2.50;98.96;102502.88;5015700;28;20422;-82
2023/01/27 05:23:52;;;;;;;22.02;10.05;;;;;;;2.49;98.87;102511.38;5015276;28;20036;-82
2023/01/27 05:26:23;;;;;;;23.38;9.95;;;;;;;2.46;98.39;102522.38;5015099;28;20565;-82
2023/01/27 05:28:51;;;;;;;22.52;10.43;;;;;;;2.46;97.58;102514.69;5015365;28;20475;-82
2023/01/27 05:31:22;;;;;;;21.83;10.07;;;;;;;2.48;97.86;102515.59;5015580;28;20018;-82
2023/01/27 05:33:49;;;;;;;22.95;10.45;;;;;;;2.50;95.32;102529.38;5014836;28;20098;-82
2023/01/27 05:36:18;;;;;;;22.48;10.07;;;;;;;2.55;95.94;102521.88;5015774;28;20419;-82
2023/01/27 05:38:44;;;;;;;21.48;9.57;;;;;;;2.53;95.61;102529.53;5016050;28;20056;-83
2023/01/27 05:41:12;;;;;;;21.73;10.25;;;;;;;2.55;95.38;102534.72;5015121;28;20026;-82
2023/01/27 05:43:39;;;;;;;21.33;9.73;;;;;;;2.53;95.15;102534.66;5015562;28;20030;-82
2023/01/27 05:46:13;;;;;;;22.63;10.75;;;;;;;2.53;95.08;102536.34;5014698;28;20041;-82
2023/01/27 05:48:49;;;;;;;23.33;10.70;;;;;;;2.52;95.38;102532.91;5015077;28;20474;-82
2023/01/27 05:51:17;;;;;;;21.98;10.20;;;;;;;2.55;95.51;102544.97;5015639;28;20037;-82
2023/01/27 05:53:43;;;;;;;21.42;9.98;;;;;;;2.54;95.12;102538.97;5014656;28;20080;-83
2023/01/27 05:56:10;;;;;;;21.42;9.20;;;;;;;2.55;94.96;102540.72;5014825;28;20113;-83
2023/01/27 05:58:37;;;;;;;22.05;9.98;;;;;;;2.55;95.80;102552.66;5014941;28;20026;-82
2023/01/27 06:01:13;;;;;;;22.10;9.95;;;;;;;2.54;95.74;102544.09;5014011;28;20026;-82
2023/01/27 06:03:39;;;;;;;21.50;9.40;;;;;;;2.53;95.85;102551.72;5015495;28;20034;-82
2023/01/27 06:06:06;;;;;;;21.27;10.40;;;;;;;2.52;95.65;102550.84;5015307;28;20026;-83
2023/01/27 06:08:32;;;;;;;20.90;9.25;;;;;;;2.54;96.21;102551.78;5014409;28;20420;-83
2023/01/27 06:10:58;;;;;;;20.13;9.18;;;;;;;2.54;95.38;102550.88;4997278;28;20117;-83
2023/01/27 06:13:23;;;;;;;21.15;9.80;;;;;;;2.56;95.88;102546.72;5014930;28;20088;-82
2023/01/27 06:15:49;;;;;;;21.25;10.00;;;;;;;2.56;96.09;102549.28;5013259;28;20041;-83
2023/01/27 06:18:16;;;;;;;20.42;9.88;;;;;;;2.55;96.07;102548.41;4997150;28;20078;-82
2023/01/27 06:20:42;;;;;;;21.70;10.45;;;;;;;2.56;96.71;102557.88;4995563;28;20027;-83
2023/01/27 06:23:09;;;;;;;19.27;8.80;;;;;;;2.58;95.48;102550.22;4994082;28;20360;-83
2023/01/27 06:25:35;;;;;;;;;;;;;;;2.57;95.76;102562.19;4995395;28;20054;-82
2023/01/27 06:28:00;;;;;;;20.05;9.27;;;;;;;2.61;96.04;102563.19;4995265;28;20399;-82
2023/01/27 06:30:25;;;;;;;18.70;8.45;;;;;;;2.61;95.69;102558.06;4994086;28;20049;-82
2023/01/27 06:32:51;;;;;;;19.67;8.55;;;;;;;2.60;95.74;102559.75;4994479;28;20054;-82
2023/01/27 06:35:16;;;;;;;19.40;8.60;;;;;;;2.64;95.65;102555.66;4994754;28;20026;-83
2023/01/27 06:37:41;;;;;;;18.45;8.00;;;;;;;2.65;96.00;102559.94;4994511;28;20518;-82
2023/01/27 06:40:07;;;;;;;17.75;8.05;;;;;;;2.63;95.95;102554.75;4986688;28;20034;-83
2023/01/27 06:42:33;;;;;;;17.88;8.23;;;;;;;2.66;96.08;102553.16;4993869;28;20035;-82
2023/01/27 06:44:58;;;;;;;16.95;7.72;;;;;;;2.68;96.13;102564.34;4994334;28;20034;-82
2023/01/27 06:47:23;;;;;;;17.60;7.68;;;;;;;2.68;96.00;102554.97;4995187;28;20529;-82
2023/01/27 06:49:49;;;;;;;19.30;8.77;;;;;;;2.70;95.82;102562.75;4993773;28;20040;-84
2023/01/27 06:52:14;;;;;;;18.30;8.00;;;;;;;2.71;95.66;102559.34;4994580;28;20517;-82
2023/01/27 06:54:39;;;;;;;18.70;8.20;;;;;;;2.71;95.14;102564.47;4994201;28;20066;-82
2023/01/27 06:57:07;;;;;;;17.40;7.72;;;;;;;2.73;94.98;102565.44;4993736;28;20101;-81
2023/01/27 06:59:33;;;;;;;17.52;7.88;;;;;;;2.73;95.46;102568.00;4994593;28;20468;-81
2023/01/27 07:01:58;;;;;;;17.88;7.13;;;;;;;2.76;95.51;102563.00;4994511;28;20034;-81
2023/01/27 07:04:23;;;;;;;16.38;6.82;;;;;;;2.72;94.89;102563.66;4992912;28;20414;-81
2023/01/27 07:06:48;;;;;;;15.00;6.90;;;;;;;2.76;95.59;102569.00;4991949;28;20031;-81
2023/01/27 07:09:14;;;;;;;14.90;6.55;;;;;;;2.76;95.31;102571.56;4992892;28;20558;-82
2023/01/27 07:11:39;;;;;;;16.77;6.85;;;;;;;2.77;95.16;102572.44;4993444;28;20030;-82
2023/01/27 07:14:06;;;;;;;13.95;6.13;;;;;;;2.75;94.76;102569.84;4993727;28;20026;-82
2023/01/27 07:16:31;;;;;;;13.68;5.95;;;;;;;2.76;94.91;102566.44;4998022;28;20115;-82
2023/01/27 07:18:57;;;;;;;14.25;6.25;;;;;;;2.78;94.48;102571.66;5012105;28;20475;-82
2023/01/27 07:21:24;;;;;;;13.60;6.18;;;;;;;2.79;94.40;102565.72;5013685;28;20034;-82
2023/01/27 07:23:49;;;;;;;13.15;5.85;;;;;;;2.83;94.67;102582.09;5013439;28;20033;-82
2023/01/27 07:26:15;;;;;;;13.75;6.00;;;;;;;2.81;94.28;102581.16;5012968;28;20032;-81
2023/01/27 07:28:40;;;;;;;14.98;6.20;;;;;;;2.82;94.25;102583.78;5013492;28;20523;-82
2023/01/27 07:31:05;;;;;;;13.00;5.75;;;;;;;2.83;93.81;102579.53;5013703;28;20022;-82
2023/01/27 07:33:30;;;;;;;14.52;5.72;;;;;;;2.83;93.74;102585.53;5012899;28;20117;-82
2023/01/27 07:35:56;;;;;;;14.05;6.43;;;;;;;2.82;92.79;102586.34;5013379;28;20032;-81
2023/01/27 07:38:21;;;;;;;10.77;5.60;;;;;;;2.88;93.73;102593.44;5013813;28;20097;-82
2023/01/27 07:40:46;;;;;;;10.43;5.10;;;;;;;2.88;93.92;102581.50;5012460;28;20034;-82
2023/01/27 07:43:12;;;;;;;10.73;5.10;;;;;;;2.95;93.87;102582.66;5013470;28;20029;-82
2023/01/27 07:45:37;;;;;;;9.85;4.78;;;;;;;2.89;93.45;102596.09;5013599;28;20030;-82
2023/01/27 07:48:05;;;;;;;10.35;4.88;;;;;;;2.90;94.15;102602.97;5012293;28;20105;-82
2023/01/27 07:50:30;;;;;;;13.55;5.50;;;;;;;2.87;93.02;102602.81;5012830;28;20030;-81
2023/01/27 07:53:00;;;;;;;11.27;5.10;;;;;;;2.89;93.38;102605.44;5011804;28;20497;-82
2023/01/27 07:55:25;;;;;;;12.57;5.57;;;;;;;2.91;93.74;102609.88;5012822;28;20034;-82
2023/01/27 07:57:54;;;;;;;10.80;5.32;;;;;;;2.90;93.84;102604.66;5013011;28;20022;-82
2023/01/27 08:00:23;;;;;;;10.05;4.57;;;;;;;2.91;93.35;102609.88;5011581;28;20092;-82
2023/01/27 08:02:52;;;;;;;11.68;5.55;;;;;;;2.89;93.58;102608.91;5012392;28;20037;-82
2023/01/27 08:05:19;;;;;;;11.85;5.60;;;;;;;2.93;93.99;102617.63;5012656;28;20364;-82
2023/01/27 08:07:44;;;;;;;10.02;5.13;;;;;;;2.89;93.74;102603.78;5011593;28;20116;-81
2023/01/27 08:10:10;;;;;;;10.73;5.28;;;;;;;2.91;93.79;102603.84;4996637;28;20495;-82
2023/01/27 08:12:35;;;;;;;13.10;5.53;;;;;;;2.90;93.18;102607.22;5013029;28;20038;-84
2023/01/27 08:15:00;;;;;;;11.63;5.68;;;;;;;2.90;93.84;102610.66;5012391;28;20026;-82
2023/01/27 08:17:26;;;;;;;12.10;5.22;;;;;;;2.92;93.91;102618.41;5012265;28;20479;-80
2023/01/27 08:19:51;;;;;;;11.55;5.70;;;;;;;2.90;93.64;102613.22;5012732;28;20510;-84
2023/01/27 08:22:20;;;;;;;11.18;5.60;;;;;;;2.92;93.68;102618.41;5012145;28;20029;-82
2023/01/27 08:24:45;;;;;;;12.48;5.80;;;;;;;2.89;93.63;102616.59;5012730;28;20022;-82
2023/01/27 08:27:11;;;;;;;11.35;5.80;;;;;;;2.90;94.12;102617.47;5012751;28;20030;-82
2023/01/27 08:29:36;;;;;;;11.18;5.45;;;;;;;2.93;94.07;102615.06;5012624;28;20030;-83
2023/01/27 08:32:02;;;;;;;12.13;5.80;;;;;;;2.93;94.20;102621.03;5012312;28;20028;-83
2023/01/27 08:34:27;;;;;;;9.68;5.00;;;;;;;2.96;94.33;102614.31;5008258;28;20030;-82
2023/01/27 08:36:52;;;;;;;11.75;5.32;;;;;;;2.94;93.81;102615.09;5010810;28;20034;-82
2023/01/27 08:39:18;;;;;;;11.95;5.38;;;;;;;2.96;94.20;102622.00;5011961;28;20030;-82
2023/01/27 08:41:43;;;;;;;11.77;5.65;;;;;;;2.96;94.07;102620.31;5011668;28;20022;-82
2023/01/27 08:44:09;;;;;;;11.75;5.30;;;;;;;2.97;94.50;102618.63;5011876;28;20033;-83
2023/01/27 08:46:34;;;;;;;9.30;5.00;;;;;;;2.99;94.45;102632.41;5010323;28;20048;-82
2023/01/27 08:49:00;;;;;;;12.50;6.03;;;;;;;2.93;93.42;102630.44;5010564;28;20037;-82
2023/01/27 08:51:25;;;;;;;13.05;6.22;;;;;;;2.99;94.17;102634.97;5011265;28;20026;-84
2023/01/27 08:53:50;;;;;;;13.43;6.30;;;;;;;2.96;94.03;102629.69;5010670;28;20620;-82
2023/01/27 08:56:16;;;;;;;13.07;5.95;;;;;;;3.02;94.55;102635.97;5009456;28;20033;-82
2023/01/27 08:58:41;;;;;;;14.05;6.00;;;;;;;3.02;94.42;102645.38;5010110;28;20041;-81
2023/01/27 09:01:07;;;;;;;10.95;5.57;;;;;;;3.02;93.95;102648.81;5010433;28;20117;-82
2023/01/27 09:03:34;;;;;;;12.45;6.18;;;;;;;3.03;93.92;102660.81;5010283;28;20649;-82
2023/01/27 09:06:00;;;;;;;13.27;6.10;;;;;;;3.00;93.71;102660.69;5010912;28;20034;-82
2023/01/27 09:08:29;;;;;;;10.87;5.53;;;;;;;3.02;93.34;102659.06;5012323;28;20471;-82
2023/01/27 09:10:55;;;;;;;11.80;5.63;;;;;;;3.01;93.04;102659.00;5010538;28;20431;-81
2023/01/27 09:13:23;;;;;;;12.00;5.78;;;;;;;3.02;93.43;102653.94;5012549;28;20497;-82
2023/01/27 09:15:52;;;;;;;11.73;5.32;;;;;;;3.04;93.07;102659.16;5012493;28;20087;-82
2023/01/27 09:18:17;;;;;;;11.25;5.25;;;;;;;3.06;92.62;102657.50;5011171;28;20172;-82
2023/01/27 09:20:43;;;;;;;10.95;5.55;;;;;;;3.09;92.28;102658.56;5012536;28;20109;-82
2023/01/27 09:23:08;;;;;;;9.00;5.05;;;;;;;3.11;92.14;102660.28;5011716;28;20029;-82
2023/01/27 09:25:33;;;;;;;9.73;5.40;;;;;;;3.10;92.53;102661.97;5011500;28;20112;-82
2023/01/27 09:27:59;;;;;;;9.75;5.10;;;;;;;3.11;91.63;102658.59;5012163;28;20165;-82
2023/01/27 09:30:25;;;;;;;8.45;4.90;;;;;;;3.16;92.70;102662.25;5012707;28;20128;-82
2023/01/27 09:32:51;;;;;;;10.52;5.00;;;;;;;3.30;91.96;102662.88;5013307;28;20072;-82
2023/01/27 09:35:17;;;;;;;8.80;4.90;;;;;;;3.22;92.46;102667.66;5015918;28;20422;-82
2023/01/27 09:37:52;;;;;;;7.95;4.63;;;;;;;3.24;91.82;102672.84;5015580;28;20018;-82
2023/01/27 09:40:51;;;;;;;9.30;4.72;;;;;;;3.28;92.30;102672.19;5015026;28;20033;-82
2023/01/27 09:43:31;;;;;;;9.65;5.03;;;;;;;3.29;91.97;102676.50;4998185;28;20041;-82
2023/01/27 09:46:03;;;;;;;9.18;4.85;;;;;;;3.28;91.14;102673.84;5014283;28;20025;-81
2023/01/27 09:48:52;;;;;;;8.85;4.82;;;;;;;3.26;90.85;102686.63;5015244;28;20112;-82
2023/01/27 09:51:42;;;;;;;8.45;4.65;;;;;;;3.16;90.03;102687.03;5015191;28;20131;-82
2023/01/27 09:54:25;;;;;;;7.80;4.40;;;;;;;3.21;90.46;102686.44;5014059;28;20081;-81
2023/01/27 09:57:12;;;;;;;10.65;5.35;;;;;;;3.16;89.89;102689.59;5015057;28;20471;-82
2023/01/27 09:59:43;;;;;;;9.75;5.07;;;;;;;3.16;90.26;102682.75;5014925;28;20034;-82
2023/01/27 10:02:25;;;;;;;9.73;5.05;;;;;;;3.08;90.12;102695.28;5014869;28;20030;-82
2023/01/27 10:05:25;;;;;;;9.30;4.93;;;;;;;3.13;90.66;102698.03;5014426;28;20033;-82
2023/01/27 10:08:36;;;;;;;10.07;5.22;;;;;;;3.08;90.48;102692.72;5013154;28;20030;-82
2023/01/27 10:11:16;;;;;;;9.98;4.90;;;;;;;3.13;90.99;102687.78;5014142;28;20038;-81
2023/01/27 10:13:50;;;;;;;10.27;5.20;;;;;;;3.12;91.19;102688.59;5014534;28;20444;-79
2023/01/27 10:16:30;;;;;;;9.05;4.97;;;;;;;3.13;90.40;102685.22;5013854;28;20026;-82
2023/01/27 10:19:04;;;;;;;10.13;5.05;;;;;;;3.23;90.92;102689.06;4995235;28;20018;-82
2023/01/27 10:21:52;;;;;;;9.95;5.00;;;;;;;3.22;90.29;102688.19;4994445;28;20407;-82
2023/01/27 10:24:39;;;;;;;9.15;5.00;;;;;;;3.23;90.57;102682.25;4995541;28;20030;-82
2023/01/27 10:27:20;;;;;;;12.80;5.55;;;;;;;3.23;89.56;102684.81;4994223;28;20569;-81
2023/01/27 10:29:54;;;;;;;10.93;5.13;;;;;;;3.27;89.78;102683.25;4990800;28;20170;-82
2023/01/27 10:32:27;;;;;;;10.18;4.90;;;;;;;3.38;90.27;102676.03;4975804;28;20438;-82
2023/01/27 10:35:30;;;;;;;9.98;4.68;;;;;;;3.44;90.16;102673.75;4974951;28;20380;-82
2023/01/27 10:38:12;;;;;;;9.05;4.55;;;;;;;3.50;90.24;102678.25;4975515;28;20125;-82
2023/01/27 10:40:55;;;;;;;10.68;5.30;;;;;;;3.40;88.74;102676.97;4985854;28;20117;-82
2023/01/27 10:43:38;;;;;;;9.20;4.72;;;;;;;3.44;89.10;102673.75;4994078;28;20097;-82
2023/01/27 10:46:24;;;;;;;10.85;5.10;;;;;;;3.44;90.15;102668.59;4994612;28;20046;-82
2023/01/27 10:49:14;;;;;;;9.73;5.07;;;;;;;3.47;89.60;102668.75;4993780;28;20442;-82
2023/01/27 10:52:02;;;;;;;11.05;5.05;;;;;;;3.49;89.61;102677.38;4994777;28;20673;-82
2023/01/27 10:54:41;;;;;;;9.05;5.05;;;;;;;3.48;89.09;102672.19;4994944;28;20480;-82
2023/01/27 10:57:13;;;;;;;10.00;5.07;;;;;;;3.41;89.19;102665.91;4993222;28;20030;-81
2023/01/27 10:59:51;;;;;;;9.43;4.97;;;;;;;3.42;89.35;102680.50;4994797;28;20027;-82
2023/01/27 11:02:58;;;;;;;10.20;5.43;;;;;;;3.43;88.56;102668.56;4993643;28;20393;-82
2023/01/27 11:05:30;;;;;;;9.65;4.97;;;;;;;3.37;88.87;102677.72;4972459;28;20066;-82
2023/01/27 11:08:03;;;;;;;10.75;5.10;;;;;;;3.40;89.15;102667.59;4994138;28;20022;-83
2023/01/27 11:10:38;;;;;;;8.65;4.97;;;;;;;3.30;88.52;102677.38;4993996;28;20113;-82
2023/01/27 11:13:04;;;;;;;8.98;4.65;;;;;;;3.32;89.39;102678.31;4994352;28;20035;-82
2023/01/27 11:15:33;;;;;;;8.95;5.00;;;;;;;3.32;88.89;102673.19;4993664;28;20129;-82
2023/01/27 11:18:22;;;;;;;10.32;4.78;;;;;;;3.33;89.39;102675.81;4992940;28;20503;-82
2023/01/27 11:20:54;;;;;;;11.20;5.00;;;;;;;3.22;89.42;102674.47;4994008;28;20037;-82
2023/01/27 11:23:54;;;;;;;10.05;5.00;;;;;;;3.22;89.65;102672.78;4994507;28;20030;-82
2023/01/27 11:26:29;;;;;;;10.32;5.35;;;;;;;3.14;89.56;102658.75;4979749;28;20077;-81
2023/01/27 11:29:19;;;;;;;9.18;4.90;;;;;;;3.17;90.25;102668.25;4993917;28;20034;-82
2023/01/27 11:32:09;;;;;;;10.85;5.20;;;;;;;3.20;90.52;102661.56;4992804;28;20030;-81
2023/01/27 11:34:47;;;;;;;10.55;5.22;;;;;;;3.18;90.16;102670.88;4993635;28;20026;-82
2023/01/27 11:37:24;;;;;;;12.15;5.53;;;;;;;3.21;90.43;102671.03;4993480;28;20030;-82
2023/01/27 11:39:49;;;;;;;10.70;5.38;;;;;;;3.28;90.59;102666.16;4993126;28;20030;-84
2023/01/27 11:42:15;;;;;;;9.45;4.88;;;;;;;3.38;90.38;102655.50;4993790;28;20037;-82
2023/01/27 11:44:43;;;;;;;11.32;5.10;;;;;;;3.47;89.82;102655.91;4993770;28;20022;-81
2023/01/27 11:47:21;;;;;;;11.30;5.03;;;;;;;3.55;90.22;102646.84;4992776;28;20026;-79
2023/01/27 11:49:48;;;;;;;8.63;4.63;;;;;;;3.63;89.73;102659.13;4993544;28;20349;-82
2023/01/27 11:52:17;;;;;;;13.25;5.70;;;;;;;3.57;88.51;102656.31;4992919;28;20030;-81
2023/01/27 11:55:09;;;;;;;12.52;5.57;;;;;;;3.62;89.22;102657.34;4993336;28;20042;-82
2023/01/27 11:57:40;;;;;;;11.52;5.65;;;;;;;3.60;88.92;102654.75;4993248;28;20040;-82
2023/01/27 12:00:30;;;;;;;10.77;5.20;;;;;;;3.68;88.93;102653.38;4992832;28;20117;-82
2023/01/27 12:03:08;;;;;;;11.82;5.38;;;;;;;3.71;89.62;102655.22;4993322;28;20026;-81
2023/01/27 12:05:40;;;;;;;11.75;5.22;;;;;;;3.72;88.91;102662.06;4993503;28;20027;-81
2023/01/27 12:08:05;;;;;;;11.65;5.45;;;;;;;3.69;87.76;102649.13;4992351;28;20487;-80
2023/01/27 12:10:39;;;;;;;10.13;5.40;;;;;;;3.70;88.49;102656.03;4993448;28;20106;-82
2023/01/27 12:13:18;;;;;;;10.75;5.30;;;;;;;3.70;88.29;102649.19;4992599;28;20042;-82